NAG weather

Dr. Babasaheb Ambedkar International Airport
Naqpur, Maharashtra, India

Public forecast

Using degrees Celsius for public forecast. Weather courtesy of forecast.io.

Current aviation weather report (METAR) for Dr. Babasaheb Ambedkar International Airport

Retrieved 2020/05/26 16:00 UTC (34 minutes ago):

VANP 261600Z 22004KT 5000 HZ SCT100 38/07 Q1005 NOSIG

Aviation forecast (TAF) for Dr. Babasaheb Ambedkar International Airport

Retrieved 2020/05/26 12:45 UTC (4 hours ago):

TAF VANP 261100Z 2612/2718 32003KT 4000 HZ NSC BECMG 2702/2704 29008KT 6000 FEW025 BECMG 2712/2714 32003KT 4000 HZ NSC